Wetterdaten: Freitag, 26.12.2014
Datum Zeit Temp. A. Feuchte A. Luftdruck Regen Wind Richtung Richtung Sonnenschein ET UV Solar Taupunkt Windchill Windben Empfang
26.12.2014 00:00 3,0 C 64 % 1024,0 hPa 0,0 l/m 2,1 km/h (1 Bft) S-SW 200 0 min 0,000 mm 0,0 UV-I 0 W/m -3,1 C 3,0 C 4,0 km/h (1 Bft) 0,00 %
26.12.2014 01:00 2,9 C 63 % 1023,7 hPa 0,0 l/m 2,9 km/h (1 Bft) N 359 0 min 0,000 mm 0,0 UV-I 0 W/m -3,4 C 2,9 C 4,0 km/h (1 Bft) 0,00 %
26.12.2014 02:00 2,7 C 64 % 1023,7 hPa 0,0 l/m 13,0 km/h (3 Bft) S-SW 210 0 min 0,000 mm 0,0 UV-I 0 W/m -3,4 C -2,5 C 19,8 km/h (3 Bft) 0,00 %
26.12.2014 03:00 1,4 C 74 % 1023,9 hPa 0,0 l/m 0,6 km/h (0 Bft) S 180 0 min 0,000 mm 0,0 UV-I 0 W/m -2,7 C 1,4 C 4,0 km/h (1 Bft) 0,00 %
26.12.2014 04:00 1,6 C 70 % 1024,2 hPa 0,0 l/m 2,9 km/h (1 Bft) N-NW 340 0 min 0,000 mm 0,0 UV-I 0 W/m -3,3 C 1,6 C 7,9 km/h (2 Bft) 0,00 %
26.12.2014 05:00 0,8 C 72 % 1025,1 hPa 0,0 l/m 1,4 km/h (1 Bft) N-NW 340 0 min 0,000 mm 0,0 UV-I 0 W/m -3,7 C 0,8 C 4,0 km/h (1 Bft) 0,00 %
26.12.2014 06:00 1,2 C 70 % 1025,3 hPa 0,0 l/m 2,1 km/h (1 Bft) S-SW 200 0 min 0,000 mm 0,0 UV-I 0 W/m -3,7 C 1,2 C 4,0 km/h (1 Bft) 0,00 %
26.12.2014 07:00 1,1 C 67 % 1025,8 hPa 0,0 l/m 0,3 km/h (0 Bft) W-NW 300 0 min 0,000 mm 0,0 UV-I 0 W/m -4,3 C 1,1 C 4,0 km/h (1 Bft) 0,00 %
26.12.2014 08:00 0,9 C 67 % 1026,1 hPa 0,0 l/m 2,1 km/h (1 Bft) SW 230 0 min 0,000 mm 0,0 UV-I 0 W/m -4,5 C 0,9 C 4,0 km/h (1 Bft) 0,00 %
26.12.2014 09:00 0,9 C 69 % 1026,5 hPa 0,0 l/m 4,7 km/h (1 Bft) SW 235 0 min 0,000 mm 0,0 UV-I 18 W/m -4,1 C 0,9 C 7,9 km/h (2 Bft) 0,00 %
26.12.2014 10:00 1,1 C 68 % 1027,1 hPa 0,0 l/m 6,9 km/h (2 Bft) SW 235 0 min 0,000 mm 1,0 UV-I 59 W/m -4,1 C 0,6 C 15,8 km/h (3 Bft) 0,00 %
26.12.2014 11:00 1,2 C 67 % 1027,1 hPa 0,0 l/m 3,2 km/h (1 Bft) SW 230 0 min 0,000 mm 1,0 UV-I 41 W/m -4,2 C 1,2 C 7,9 km/h (2 Bft) 0,00 %
26.12.2014 12:00 0,9 C 69 % 1026,5 hPa 0,0 l/m 2,1 km/h (1 Bft) NW 320 0 min 0,000 mm 1,0 UV-I 100 W/m -4,1 C 0,9 C 7,9 km/h (2 Bft) 0,00 %
26.12.2014 13:00 1,8 C 62 % 1026,0 hPa 0,3 l/m 0,0 km/h (0 Bft) NW 320 0 min 0,000 mm 1,0 UV-I 96 W/m -4,7 C 1,8 C 0,0 km/h (0 Bft) 0,00 %
26.12.2014 14:00 0,6 C 69 % 1025,9 hPa 0,0 l/m 1,4 km/h (1 Bft) W-SW 245 0 min 0,000 mm 1,0 UV-I 93 W/m -4,4 C 0,6 C 4,0 km/h (1 Bft) 0,00 %
26.12.2014 15:00 0,8 C 67 % 1025,8 hPa 0,0 l/m 0,3 km/h (0 Bft) SW 230 0 min 0,000 mm 1,0 UV-I 64 W/m -4,6 C 0,8 C 4,0 km/h (1 Bft) 0,00 %
26.12.2014 16:00 0,3 C 65 % 1025,6 hPa 0,0 l/m 0,0 km/h (0 Bft) O-NO 60 0 min 0,000 mm 0,0 UV-I 6 W/m -5,5 C 0,3 C 0,0 km/h (0 Bft) 0,00 %
26.12.2014 17:00 -0,4 C 70 % 1025,7 hPa 0,0 l/m 0,0 km/h (0 Bft) S 180 0 min 0,000 mm 0,0 UV-I 0 W/m -5,2 C -0,4 C 0,0 km/h (0 Bft) 0,00 %
26.12.2014 18:00 -0,5 C 71 % 1025,4 hPa 0,0 l/m 0,0 km/h (0 Bft) S 180 0 min 0,000 mm 0,0 UV-I 0 W/m -5,1 C -0,5 C 0,0 km/h (0 Bft) 0,00 %
26.12.2014 19:00 -0,4 C 71 % 1025,0 hPa 0,0 l/m 0,0 km/h (0 Bft) SO 130 0 min 0,000 mm 0,0 UV-I 0 W/m -5,0 C -0,4 C 0,0 km/h (0 Bft) 0,00 %
26.12.2014 20:00 -0,6 C 80 % 1024,7 hPa 0,0 l/m 0,0 km/h (0 Bft) W-SW 245 0 min 0,000 mm 0,0 UV-I 0 W/m -3,6 C -0,6 C 0,0 km/h (0 Bft) 0,00 %
26.12.2014 21:00 -0,8 C 82 % 1024,4 hPa 0,0 l/m 0,0 km/h (0 Bft) S 180 0 min 0,000 mm 0,0 UV-I 0 W/m -3,5 C -0,8 C 0,0 km/h (0 Bft) 0,00 %
26.12.2014 22:00 -0,9 C 82 % 1023,7 hPa 0,0 l/m 0,0 km/h (0 Bft) S-SW 200 0 min 0,000 mm 0,0 UV-I 0 W/m -3,6 C -0,9 C 0,0 km/h (0 Bft) 0,00 %
26.12.2014 23:00 -1,4 C 80 % 1023,4 hPa 0,0 l/m 0,0 km/h (0 Bft) S 180 0 min 0,000 mm 0,0 UV-I 0 W/m -4,4 C -1,4 C 0,0 km/h (0 Bft) 0,00 %
_ Min-Zeit 23:00 13:00 23:00 - 13:00 - - - - - - 16:00 02:00 13:00 00:00
Minimum _ -1,4 C 62 % 1023,4 hPa - 0,0 km/h (0 Bft) - - - - - - -5,5 C -2,5 C 0,0 km/h (0 Bft) 0,00 %
_ Max-Zeit 00:00 21:00 10:00 13:00 02:00 - - 00:00 00:00 10:00 12:00 03:00 00:00 02:00 00:00
Maximum _ 3,0 C 82 % 1027,1 hPa 0,3 l/m 13,0 km/h
S-SW (3 Bft)
- - 0 min 0,000 mm 1,0 UV-I 100 W/m -2,7 C 3,0 C 19,8 km/h
S-SW (3 Bft)
0,00 %
Durchschnitt _ 0,7 C 70 % 1025,2 hPa #0,3 l/m 1,9 km/h (1 Bft) SW - #0 min. #0,000 mm 1,0 UV-I 60 W/m -4,1 C 0,4 C 4,3 km/h (1 Bft) 0,00 %